sensor_id;sensor_type;location;lat;lon;timestamp;pressure;altitude;pressure_sealevel;temperature;humidity
10518;BME280;5307;42.548;22.968;2023-12-14T00:00:20;92889.84;;;9.71;76.57
10518;BME280;5307;42.548;22.968;2023-12-14T00:02:46;92885.38;;;9.59;76.84
10518;BME280;5307;42.548;22.968;2023-12-14T00:05:13;92880.41;;;9.58;76.81
10518;BME280;5307;42.548;22.968;2023-12-14T00:07:40;92878.66;;;9.45;77.44
10518;BME280;5307;42.548;22.968;2023-12-14T00:10:07;92888.72;;;9.54;77.32
10518;BME280;5307;42.548;22.968;2023-12-14T00:12:34;92878.28;;;9.76;76.89
10518;BME280;5307;42.548;22.968;2023-12-14T00:15:03;92881.03;;;9.76;76.54
10518;BME280;5307;42.548;22.968;2023-12-14T00:17:30;92879.00;;;9.86;75.91
10518;BME280;5307;42.548;22.968;2023-12-14T00:19:56;92872.59;;;9.89;75.87
10518;BME280;5307;42.548;22.968;2023-12-14T00:22:23;92869.19;;;9.79;76.18
10518;BME280;5307;42.548;22.968;2023-12-14T00:24:51;92872.28;;;9.72;75.80
10518;BME280;5307;42.548;22.968;2023-12-14T00:27:18;92874.16;;;9.81;76.16
10518;BME280;5307;42.548;22.968;2023-12-14T00:29:44;92862.47;;;9.66;76.17
10518;BME280;5307;42.548;22.968;2023-12-14T00:32:12;92872.59;;;9.65;76.54
10518;BME280;5307;42.548;22.968;2023-12-14T00:34:39;92864.09;;;9.72;76.22
10518;BME280;5307;42.548;22.968;2023-12-14T00:37:06;92867.34;;;9.62;76.51
10518;BME280;5307;42.548;22.968;2023-12-14T00:39:33;92881.19;;;9.73;76.49
10518;BME280;5307;42.548;22.968;2023-12-14T00:42:00;92885.03;;;9.66;75.86
10518;BME280;5307;42.548;22.968;2023-12-14T00:44:26;92890.94;;;9.65;76.32
10518;BME280;5307;42.548;22.968;2023-12-14T00:46:53;92871.81;;;9.74;76.29
10518;BME280;5307;42.548;22.968;2023-12-14T00:52:39;92889.72;;;9.66;76.19
10518;BME280;5307;42.548;22.968;2023-12-14T00:55:06;92885.25;;;9.53;76.49
10518;BME280;5307;42.548;22.968;2023-12-14T00:57:33;92882.75;;;9.65;76.48
10518;BME280;5307;42.548;22.968;2023-12-14T01:00:00;92869.94;;;9.80;75.45
10518;BME280;5307;42.548;22.968;2023-12-14T01:02:27;92875.41;;;9.95;74.87
10518;BME280;5307;42.548;22.968;2023-12-14T01:04:53;92882.56;;;9.92;75.01
10518;BME280;5307;42.548;22.968;2023-12-14T01:07:20;92873.31;;;10.14;73.76
10518;BME280;5307;42.548;22.968;2023-12-14T01:09:49;92854.13;;;9.84;73.82
10518;BME280;5307;42.548;22.968;2023-12-14T01:12:15;92871.25;;;9.85;74.43
10518;BME280;5307;42.548;22.968;2023-12-14T01:14:46;92866.91;;;9.78;74.91
10518;BME280;5307;42.548;22.968;2023-12-14T01:17:13;92869.19;;;9.56;74.97
10518;BME280;5307;42.548;22.968;2023-12-14T01:19:40;92877.88;;;9.21;76.41
10518;BME280;5307;42.548;22.968;2023-12-14T01:22:07;92875.91;;;9.21;77.12
10518;BME280;5307;42.548;22.968;2023-12-14T01:24:34;92869.63;;;8.73;79.07
10518;BME280;5307;42.548;22.968;2023-12-14T01:27:02;92865.03;;;8.37;80.95
10518;BME280;5307;42.548;22.968;2023-12-14T01:29:29;92860.66;;;8.30;82.83
10518;BME280;5307;42.548;22.968;2023-12-14T01:31:56;92867.47;;;8.35;83.30
10518;BME280;5307;42.548;22.968;2023-12-14T01:34:23;92874.84;;;8.16;85.34
10518;BME280;5307;42.548;22.968;2023-12-14T01:36:49;92871.97;;;8.38;84.47
10518;BME280;5307;42.548;22.968;2023-12-14T01:39:16;92871.53;;;8.91;82.93
10518;BME280;5307;42.548;22.968;2023-12-14T01:41:43;92869.72;;;9.21;81.32
10518;BME280;5307;42.548;22.968;2023-12-14T01:44:11;92857.31;;;9.20;79.06
10518;BME280;5307;42.548;22.968;2023-12-14T01:46:38;92864.13;;;8.82;79.93
10518;BME280;5307;42.548;22.968;2023-12-14T01:49:04;92859.88;;;8.90;79.97
10518;BME280;5307;42.548;22.968;2023-12-14T01:51:31;92849.84;;;8.97;79.05
10518;BME280;5307;42.548;22.968;2023-12-14T01:53:59;92858.19;;;8.93;78.99
10518;BME280;5307;42.548;22.968;2023-12-14T01:56:26;92864.84;;;8.59;80.68
10518;BME280;5307;42.548;22.968;2023-12-14T01:58:52;92866.44;;;9.08;80.49
10518;BME280;5307;42.548;22.968;2023-12-14T02:01:23;92865.13;;;9.51;78.51
10518;BME280;5307;42.548;22.968;2023-12-14T02:03:54;92860.16;;;9.73;76.11
10518;BME280;5307;42.548;22.968;2023-12-14T02:06:21;92855.91;;;9.48;76.32
10518;BME280;5307;42.548;22.968;2023-12-14T02:08:48;92850.66;;;9.83;75.81
10518;BME280;5307;42.548;22.968;2023-12-14T02:11:15;92848.72;;;9.99;74.36
10518;BME280;5307;42.548;22.968;2023-12-14T02:13:42;92841.56;;;9.87;73.99
10518;BME280;5307;42.548;22.968;2023-12-14T02:16:09;92826.53;;;10.06;73.73
10518;BME280;5307;42.548;22.968;2023-12-14T02:18:37;92828.22;;;10.03;73.03
10518;BME280;5307;42.548;22.968;2023-12-14T02:21:04;92829.34;;;9.97;73.28
10518;BME280;5307;42.548;22.968;2023-12-14T02:23:32;92827.66;;;9.99;73.28
10518;BME280;5307;42.548;22.968;2023-12-14T02:25:59;92830.81;;;9.83;73.46
10518;BME280;5307;42.548;22.968;2023-12-14T02:28:26;92823.88;;;9.97;73.62
10518;BME280;5307;42.548;22.968;2023-12-14T02:30:53;92820.69;;;9.98;73.53
10518;BME280;5307;42.548;22.968;2023-12-14T02:33:19;92806.22;;;9.92;73.36
10518;BME280;5307;42.548;22.968;2023-12-14T02:35:47;92825.50;;;10.03;72.98
10518;BME280;5307;42.548;22.968;2023-12-14T02:38:14;92821.81;;;9.92;73.20
10518;BME280;5307;42.548;22.968;2023-12-14T02:40:42;92825.22;;;10.01;73.17
10518;BME280;5307;42.548;22.968;2023-12-14T02:43:08;92804.53;;;10.09;72.71
10518;BME280;5307;42.548;22.968;2023-12-14T02:45:35;92825.00;;;10.29;71.81
10518;BME280;5307;42.548;22.968;2023-12-14T02:48:02;92827.13;;;10.25;71.86
10518;BME280;5307;42.548;22.968;2023-12-14T02:50:29;92823.91;;;10.11;71.98
10518;BME280;5307;42.548;22.968;2023-12-14T02:52:56;92824.31;;;10.49;70.80
10518;BME280;5307;42.548;22.968;2023-12-14T02:55:22;92820.63;;;10.52;69.95
10518;BME280;5307;42.548;22.968;2023-12-14T02:57:51;92823.19;;;10.55;69.32
10518;BME280;5307;42.548;22.968;2023-12-14T03:00:18;92834.19;;;10.61;69.26
10518;BME280;5307;42.548;22.968;2023-12-14T03:02:45;92829.97;;;10.45;69.32
10518;BME280;5307;42.548;22.968;2023-12-14T03:05:12;92828.47;;;10.44;68.95
10518;BME280;5307;42.548;22.968;2023-12-14T03:07:38;92839.38;;;10.44;69.20
10518;BME280;5307;42.548;22.968;2023-12-14T03:10:07;92829.97;;;10.45;69.54
10518;BME280;5307;42.548;22.968;2023-12-14T03:12:34;92823.78;;;10.30;69.50
10518;BME280;5307;42.548;22.968;2023-12-14T03:15:03;92845.41;;;10.33;69.99
10518;BME280;5307;42.548;22.968;2023-12-14T03:17:29;92837.03;;;10.52;69.44
10518;BME280;5307;42.548;22.968;2023-12-14T03:19:56;92835.03;;;10.37;69.30
10518;BME280;5307;42.548;22.968;2023-12-14T03:22:23;92840.97;;;10.36;69.33
10518;BME280;5307;42.548;22.968;2023-12-14T03:24:50;92825.81;;;10.35;69.60
10518;BME280;5307;42.548;22.968;2023-12-14T03:27:17;92839.75;;;10.37;69.77
10518;BME280;5307;42.548;22.968;2023-12-14T03:29:43;92830.16;;;10.27;69.81
10518;BME280;5307;42.548;22.968;2023-12-14T03:32:11;92848.97;;;10.25;70.01
10518;BME280;5307;42.548;22.968;2023-12-14T03:34:39;92834.44;;;10.19;70.32
10518;BME280;5307;42.548;22.968;2023-12-14T03:37:06;92843.31;;;10.14;70.09
10518;BME280;5307;42.548;22.968;2023-12-14T03:39:33;92833.53;;;10.22;70.61
10518;BME280;5307;42.548;22.968;2023-12-14T03:42:00;92820.59;;;10.07;70.97
10518;BME280;5307;42.548;22.968;2023-12-14T03:44:26;92825.97;;;10.02;71.09
10518;BME280;5307;42.548;22.968;2023-12-14T03:53:37;92824.25;;;9.90;72.41
10518;BME280;5307;42.548;22.968;2023-12-14T03:56:05;92815.69;;;9.97;72.11
10518;BME280;5307;42.548;22.968;2023-12-14T03:58:32;92832.53;;;9.95;72.26
10518;BME280;5307;42.548;22.968;2023-12-14T04:00:59;92831.41;;;9.87;73.04
10518;BME280;5307;42.548;22.968;2023-12-14T04:03:26;92825.56;;;9.94;72.52
10518;BME280;5307;42.548;22.968;2023-12-14T04:05:52;92825.84;;;9.96;72.76
10518;BME280;5307;42.548;22.968;2023-12-14T04:08:19;92827.63;;;9.85;73.10
10518;BME280;5307;42.548;22.968;2023-12-14T04:10:47;92830.19;;;9.88;73.00
10518;BME280;5307;42.548;22.968;2023-12-14T04:13:14;92817.88;;;9.93;73.35
10518;BME280;5307;42.548;22.968;2023-12-14T04:15:41;92830.56;;;9.96;72.78
10518;BME280;5307;42.548;22.968;2023-12-14T04:18:08;92831.31;;;9.96;72.39
10518;BME280;5307;42.548;22.968;2023-12-14T04:20:35;92826.44;;;10.00;71.88
10518;BME280;5307;42.548;22.968;2023-12-14T04:23:02;92834.06;;;10.11;71.63
10518;BME280;5307;42.548;22.968;2023-12-14T04:25:28;92836.75;;;10.35;70.96
10518;BME280;5307;42.548;22.968;2023-12-14T04:27:56;92843.88;;;10.18;70.89
10518;BME280;5307;42.548;22.968;2023-12-14T04:30:23;92818.72;;;9.99;70.80
10518;BME280;5307;42.548;22.968;2023-12-14T04:32:50;92833.91;;;10.15;70.64
10518;BME280;5307;42.548;22.968;2023-12-14T04:35:17;92831.06;;;10.09;70.68
10518;BME280;5307;42.548;22.968;2023-12-14T04:37:44;92838.19;;;10.06;71.10
10518;BME280;5307;42.548;22.968;2023-12-14T04:40:11;92845.34;;;10.04;70.78
10518;BME280;5307;42.548;22.968;2023-12-14T04:42:38;92835.25;;;9.80;71.48
10518;BME280;5307;42.548;22.968;2023-12-14T04:45:07;92829.25;;;9.91;71.34
10518;BME280;5307;42.548;22.968;2023-12-14T04:47:38;92844.34;;;9.77;71.84
10518;BME280;5307;42.548;22.968;2023-12-14T04:50:05;92828.75;;;9.78;72.40
10518;BME280;5307;42.548;22.968;2023-12-14T04:52:33;92837.59;;;9.73;71.98
10518;BME280;5307;42.548;22.968;2023-12-14T04:54:59;92833.03;;;9.70;72.07
10518;BME280;5307;42.548;22.968;2023-12-14T04:57:26;92833.78;;;9.70;72.56
10518;BME280;5307;42.548;22.968;2023-12-14T04:59:53;92834.91;;;9.64;72.78
10518;BME280;5307;42.548;22.968;2023-12-14T05:02:21;92837.69;;;9.55;73.07
10518;BME280;5307;42.548;22.968;2023-12-14T05:04:48;92838.13;;;9.62;73.48
10518;BME280;5307;42.548;22.968;2023-12-14T05:07:36;92847.28;;;9.50;73.67
10518;BME280;5307;42.548;22.968;2023-12-14T05:10:04;92842.75;;;9.47;74.04
10518;BME280;5307;42.548;22.968;2023-12-14T05:15:01;92846.25;;;8.90;76.10
10518;BME280;5307;42.548;22.968;2023-12-14T05:17:29;92840.81;;;8.90;76.55
10518;BME280;5307;42.548;22.968;2023-12-14T05:19:55;92842.47;;;9.21;76.23
10518;BME280;5307;42.548;22.968;2023-12-14T05:22:23;92845.78;;;9.49;75.40
10518;BME280;5307;42.548;22.968;2023-12-14T05:24:50;92850.22;;;9.61;74.41
10518;BME280;5307;42.548;22.968;2023-12-14T05:27:17;92834.69;;;9.52;74.20
10518;BME280;5307;42.548;22.968;2023-12-14T05:29:45;92845.81;;;9.64;73.79
10518;BME280;5307;42.548;22.968;2023-12-14T05:32:12;92850.38;;;9.81;73.73
10518;BME280;5307;42.548;22.968;2023-12-14T05:34:40;92848.97;;;9.71;73.59
10518;BME280;5307;42.548;22.968;2023-12-14T05:37:16;92855.56;;;9.94;73.34
10518;BME280;5307;42.548;22.968;2023-12-14T05:39:42;92853.03;;;9.91;72.79
10518;BME280;5307;42.548;22.968;2023-12-14T05:42:10;92853.06;;;9.67;73.39
10518;BME280;5307;42.548;22.968;2023-12-14T05:44:38;92852.22;;;9.61;73.25
10518;BME280;5307;42.548;22.968;2023-12-14T05:47:05;92844.34;;;9.77;73.38
10518;BME280;5307;42.548;22.968;2023-12-14T05:49:32;92831.69;;;9.89;72.82
10518;BME280;5307;42.548;22.968;2023-12-14T05:52:00;92855.28;;;9.92;72.55
10518;BME280;5307;42.548;22.968;2023-12-14T05:54:27;92839.94;;;9.80;72.54
10518;BME280;5307;42.548;22.968;2023-12-14T05:56:54;92848.13;;;9.80;72.49
10518;BME280;5307;42.548;22.968;2023-12-14T05:59:20;92849.19;;;9.59;73.17
10518;BME280;5307;42.548;22.968;2023-12-14T06:01:47;92859.25;;;9.67;73.21
10518;BME280;5307;42.548;22.968;2023-12-14T06:04:14;92850.47;;;9.48;73.61
10518;BME280;5307;42.548;22.968;2023-12-14T06:06:41;92860.16;;;9.49;73.62
10518;BME280;5307;42.548;22.968;2023-12-14T06:09:09;92866.69;;;9.43;74.20
10518;BME280;5307;42.548;22.968;2023-12-14T06:11:36;92865.31;;;9.47;74.40
10518;BME280;5307;42.548;22.968;2023-12-14T06:14:03;92857.66;;;9.61;74.74
10518;BME280;5307;42.548;22.968;2023-12-14T06:16:29;92868.56;;;9.61;74.46
10518;BME280;5307;42.548;22.968;2023-12-14T06:18:56;92861.19;;;9.76;73.16
10518;BME280;5307;42.548;22.968;2023-12-14T06:21:23;92872.28;;;9.72;73.22
10518;BME280;5307;42.548;22.968;2023-12-14T06:23:53;92873.53;;;9.86;73.08
10518;BME280;5307;42.548;22.968;2023-12-14T06:26:21;92872.88;;;9.91;72.54
10518;BME280;5307;42.548;22.968;2023-12-14T06:28:48;92874.72;;;9.85;72.44
10518;BME280;5307;42.548;22.968;2023-12-14T06:31:18;92865.44;;;9.92;72.20
10518;BME280;5307;42.548;22.968;2023-12-14T06:33:46;92884.28;;;10.04;72.32
10518;BME280;5307;42.548;22.968;2023-12-14T06:36:15;92882.00;;;9.88;72.03
10518;BME280;5307;42.548;22.968;2023-12-14T06:38:42;92882.06;;;9.79;72.53
10518;BME280;5307;42.548;22.968;2023-12-14T06:41:18;92879.78;;;10.01;72.88
10518;BME280;5307;42.548;22.968;2023-12-14T06:43:46;92890.44;;;10.14;72.24
10518;BME280;5307;42.548;22.968;2023-12-14T06:49:40;92883.34;;;10.07;73.24
10518;BME280;5307;42.548;22.968;2023-12-14T06:52:07;92882.09;;;10.32;72.54
10518;BME280;5307;42.548;22.968;2023-12-14T06:54:34;92883.41;;;10.37;71.97
10518;BME280;5307;42.548;22.968;2023-12-14T06:57:02;92881.91;;;10.36;71.60
10518;BME280;5307;42.548;22.968;2023-12-14T06:59:30;92889.16;;;10.39;71.69
10518;BME280;5307;42.548;22.968;2023-12-14T07:01:57;92897.75;;;10.47;71.90
10518;BME280;5307;42.548;22.968;2023-12-14T07:04:24;92879.75;;;10.55;71.46
10518;BME280;5307;42.548;22.968;2023-12-14T07:06:50;92873.66;;;10.45;71.20
10518;BME280;5307;42.548;22.968;2023-12-14T07:09:18;92882.88;;;10.62;71.01
10518;BME280;5307;42.548;22.968;2023-12-14T07:11:45;92881.09;;;10.59;70.86
10518;BME280;5307;42.548;22.968;2023-12-14T07:14:12;92886.53;;;10.59;71.08
10518;BME280;5307;42.548;22.968;2023-12-14T07:16:40;92894.53;;;10.63;70.61
10518;BME280;5307;42.548;22.968;2023-12-14T07:19:07;92887.19;;;10.69;70.74
10518;BME280;5307;42.548;22.968;2023-12-14T07:21:33;92893.41;;;10.69;70.61
10518;BME280;5307;42.548;22.968;2023-12-14T07:24:00;92892.66;;;10.69;70.84
10518;BME280;5307;42.548;22.968;2023-12-14T07:26:27;92895.69;;;10.71;70.76
10518;BME280;5307;42.548;22.968;2023-12-14T07:28:54;92907.34;;;10.72;71.04
10518;BME280;5307;42.548;22.968;2023-12-14T07:31:21;92911.47;;;10.82;71.19
10518;BME280;5307;42.548;22.968;2023-12-14T07:33:49;92898.97;;;10.90;70.65
10518;BME280;5307;42.548;22.968;2023-12-14T07:36:16;92887.34;;;10.95;70.88
10518;BME280;5307;42.548;22.968;2023-12-14T07:38:43;92891.88;;;11.13;70.63
10518;BME280;5307;42.548;22.968;2023-12-14T07:41:09;92882.78;;;11.21;70.30
10518;BME280;5307;42.548;22.968;2023-12-14T07:43:36;92902.94;;;11.24;70.06
10518;BME280;5307;42.548;22.968;2023-12-14T07:46:03;92899.94;;;11.22;70.19
10518;BME280;5307;42.548;22.968;2023-12-14T07:48:30;92884.72;;;11.36;69.86
10518;BME280;5307;42.548;22.968;2023-12-14T07:50:58;92904.50;;;11.45;69.25
10518;BME280;5307;42.548;22.968;2023-12-14T07:53:25;92892.34;;;11.46;68.85
10518;BME280;5307;42.548;22.968;2023-12-14T07:55:52;92902.88;;;11.53;70.19
10518;BME280;5307;42.548;22.968;2023-12-14T07:58:18;92895.84;;;11.67;70.37
10518;BME280;5307;42.548;22.968;2023-12-14T08:00:46;92900.41;;;11.91;69.35
10518;BME280;5307;42.548;22.968;2023-12-14T08:03:14;92889.41;;;11.85;69.04
10518;BME280;5307;42.548;22.968;2023-12-14T08:05:40;92892.47;;;11.93;68.35
10518;BME280;5307;42.548;22.968;2023-12-14T08:08:09;92887.00;;;11.93;68.10
10518;BME280;5307;42.548;22.968;2023-12-14T08:10:35;92899.38;;;11.88;68.04
10518;BME280;5307;42.548;22.968;2023-12-14T08:13:02;92896.69;;;11.94;67.48
10518;BME280;5307;42.548;22.968;2023-12-14T08:15:29;92899.13;;;11.86;67.77
10518;BME280;5307;42.548;22.968;2023-12-14T08:17:56;92894.25;;;11.96;67.83
10518;BME280;5307;42.548;22.968;2023-12-14T08:20:23;92898.22;;;11.95;67.61
10518;BME280;5307;42.548;22.968;2023-12-14T08:22:49;92891.03;;;11.97;67.52
10518;BME280;5307;42.548;22.968;2023-12-14T08:25:20;92891.63;;;12.07;67.23
10518;BME280;5307;42.548;22.968;2023-12-14T08:27:47;92882.31;;;12.19;66.42
10518;BME280;5307;42.548;22.968;2023-12-14T08:30:14;92882.28;;;12.13;66.21
10518;BME280;5307;42.548;22.968;2023-12-14T08:32:42;92887.81;;;12.45;65.02
10518;BME280;5307;42.548;22.968;2023-12-14T08:35:09;92898.50;;;12.43;64.53
10518;BME280;5307;42.548;22.968;2023-12-14T08:37:36;92905.97;;;12.42;64.42
10518;BME280;5307;42.548;22.968;2023-12-14T08:40:04;92887.16;;;12.30;65.50
10518;BME280;5307;42.548;22.968;2023-12-14T08:42:32;92891.72;;;12.38;65.17
10518;BME280;5307;42.548;22.968;2023-12-14T08:44:59;92898.78;;;12.45;65.23
10518;BME280;5307;42.548;22.968;2023-12-14T08:47:26;92899.03;;;12.47;65.34
10518;BME280;5307;42.548;22.968;2023-12-14T08:49:53;92900.06;;;12.49;65.37
10518;BME280;5307;42.548;22.968;2023-12-14T08:52:20;92898.69;;;12.60;64.94
10518;BME280;5307;42.548;22.968;2023-12-14T08:54:46;92903.63;;;12.56;65.03
10518;BME280;5307;42.548;22.968;2023-12-14T08:57:13;92882.09;;;12.69;64.29
10518;BME280;5307;42.548;22.968;2023-12-14T09:09:28;92858.06;;;12.84;64.34
10518;BME280;5307;42.548;22.968;2023-12-14T09:11:55;92866.16;;;12.99;63.52
10518;BME280;5307;42.548;22.968;2023-12-14T09:14:22;92878.78;;;12.91;63.84
10518;BME280;5307;42.548;22.968;2023-12-14T09:16:49;92873.34;;;12.96;63.16
10518;BME280;5307;42.548;22.968;2023-12-14T09:19:16;92867.31;;;12.92;63.82
10518;BME280;5307;42.548;22.968;2023-12-14T09:21:44;92868.13;;;12.98;63.35
10518;BME280;5307;42.548;22.968;2023-12-14T09:24:10;92867.16;;;13.01;62.93
10518;BME280;5307;42.548;22.968;2023-12-14T09:26:39;92871.22;;;13.12;62.79
10518;BME280;5307;42.548;22.968;2023-12-14T09:29:05;92871.22;;;13.12;63.16
10518;BME280;5307;42.548;22.968;2023-12-14T09:31:32;92866.75;;;13.14;63.12
10518;BME280;5307;42.548;22.968;2023-12-14T09:33:59;92877.19;;;13.10;63.23
10518;BME280;5307;42.548;22.968;2023-12-14T09:36:26;92872.28;;;13.20;62.78
10518;BME280;5307;42.548;22.968;2023-12-14T09:38:52;92883.09;;;13.29;62.90
10518;BME280;5307;42.548;22.968;2023-12-14T09:41:19;92883.88;;;13.35;62.64
10518;BME280;5307;42.548;22.968;2023-12-14T09:50:56;92884.91;;;13.38;63.24
10518;BME280;5307;42.548;22.968;2023-12-14T09:53:23;92884.06;;;13.26;63.38
10518;BME280;5307;42.548;22.968;2023-12-14T09:55:50;92876.53;;;13.21;63.56
10518;BME280;5307;42.548;22.968;2023-12-14T09:58:17;92872.34;;;13.25;63.45
10518;BME280;5307;42.548;22.968;2023-12-14T10:00:44;92881.00;;;13.18;63.53
10518;BME280;5307;42.548;22.968;2023-12-14T10:03:18;92879.63;;;13.34;63.56
10518;BME280;5307;42.548;22.968;2023-12-14T10:05:45;92873.97;;;13.12;63.65
10518;BME280;5307;42.548;22.968;2023-12-14T10:08:13;92882.03;;;13.21;64.04
10518;BME280;5307;42.548;22.968;2023-12-14T10:10:40;92869.38;;;13.29;63.58
10518;BME280;5307;42.548;22.968;2023-12-14T10:13:07;92867.56;;;13.20;63.97
10518;BME280;5307;42.548;22.968;2023-12-14T10:15:40;92876.66;;;13.06;64.23
10518;BME280;5307;42.548;22.968;2023-12-14T10:18:07;92866.94;;;13.05;64.35
10518;BME280;5307;42.548;22.968;2023-12-14T10:20:48;92873.97;;;13.12;64.63
10518;BME280;5307;42.548;22.968;2023-12-14T10:23:16;92874.72;;;13.12;64.55
10518;BME280;5307;42.548;22.968;2023-12-14T10:25:44;92874.88;;;13.03;64.81
10518;BME280;5307;42.548;22.968;2023-12-14T10:28:11;92878.38;;;13.03;65.29
10518;BME280;5307;42.548;22.968;2023-12-14T10:30:38;92876.09;;;12.96;66.17
10518;BME280;5307;42.548;22.968;2023-12-14T10:33:05;92877.28;;;12.90;65.90
10518;BME280;5307;42.548;22.968;2023-12-14T10:35:32;92881.63;;;12.76;67.04
10518;BME280;5307;42.548;22.968;2023-12-14T10:38:04;92889.34;;;12.72;67.68
10518;BME280;5307;42.548;22.968;2023-12-14T10:40:35;92880.53;;;12.62;68.46
10518;BME280;5307;42.548;22.968;2023-12-14T10:43:06;92889.00;;;12.38;71.33
10518;BME280;5307;42.548;22.968;2023-12-14T10:45:33;92900.16;;;12.35;72.58
10518;BME280;5307;42.548;22.968;2023-12-14T10:48:00;92895.50;;;12.41;72.14
10518;BME280;5307;42.548;22.968;2023-12-14T10:50:29;92910.84;;;12.33;73.20
10518;BME280;5307;42.548;22.968;2023-12-14T10:52:57;92915.66;;;12.17;73.99
10518;BME280;5307;42.548;22.968;2023-12-14T10:55:28;92922.72;;;12.04;71.50
10518;BME280;5307;42.548;22.968;2023-12-14T10:57:59;92932.75;;;11.57;72.64
10518;BME280;5307;42.548;22.968;2023-12-14T11:00:27;92941.75;;;11.43;73.91
10518;BME280;5307;42.548;22.968;2023-12-14T11:02:54;92935.16;;;11.35;74.93
10518;BME280;5307;42.548;22.968;2023-12-14T11:05:22;92947.53;;;11.30;76.23
10518;BME280;5307;42.548;22.968;2023-12-14T11:07:55;92949.69;;;11.11;77.53
10518;BME280;5307;42.548;22.968;2023-12-14T11:10:26;92956.88;;;11.09;78.96
10518;BME280;5307;42.548;22.968;2023-12-14T11:13:02;92959.59;;;10.94;80.05
10518;BME280;5307;42.548;22.968;2023-12-14T11:15:30;92975.69;;;10.62;81.62
10518;BME280;5307;42.548;22.968;2023-12-14T11:18:24;92975.91;;;10.35;82.84
10518;BME280;5307;42.548;22.968;2023-12-14T11:20:54;92977.47;;;10.51;83.69
10518;BME280;5307;42.548;22.968;2023-12-14T11:23:39;92970.06;;;10.03;83.66
10518;BME280;5307;42.548;22.968;2023-12-14T11:26:09;92967.91;;;9.60;82.99
10518;BME280;5307;42.548;22.968;2023-12-14T11:28:38;92981.34;;;9.63;83.05
10518;BME280;5307;42.548;22.968;2023-12-14T11:31:09;92980.59;;;9.63;82.47
10518;BME280;5307;42.548;22.968;2023-12-14T11:33:37;92982.44;;;9.57;82.53
10518;BME280;5307;42.548;22.968;2023-12-14T11:36:04;92975.84;;;9.48;82.72
10518;BME280;5307;42.548;22.968;2023-12-14T11:38:31;92975.56;;;9.37;81.89
10518;BME280;5307;42.548;22.968;2023-12-14T11:40:59;92992.56;;;9.23;82.45
10518;BME280;5307;42.548;22.968;2023-12-14T11:43:26;93002.44;;;9.20;83.18
10518;BME280;5307;42.548;22.968;2023-12-14T11:45:56;93000.75;;;9.14;83.30
10518;BME280;5307;42.548;22.968;2023-12-14T11:48:24;93006.44;;;8.92;83.93
10518;BME280;5307;42.548;22.968;2023-12-14T11:50:51;93009.28;;;8.98;84.32
10518;BME280;5307;42.548;22.968;2023-12-14T11:53:18;93005.22;;;8.93;84.31
10518;BME280;5307;42.548;22.968;2023-12-14T11:55:45;93008.28;;;8.77;85.66
10518;BME280;5307;42.548;22.968;2023-12-14T11:58:13;93019.31;;;8.82;85.97
10518;BME280;5307;42.548;22.968;2023-12-14T12:00:40;93018.88;;;8.75;86.32
10518;BME280;5307;42.548;22.968;2023-12-14T12:03:10;93029.00;;;8.65;87.42
10518;BME280;5307;42.548;22.968;2023-12-14T12:05:38;93018.25;;;8.71;87.33
10518;BME280;5307;42.548;22.968;2023-12-14T12:08:05;93025.06;;;8.75;87.18
10518;BME280;5307;42.548;22.968;2023-12-14T12:10:32;93011.00;;;8.58;87.14
10518;BME280;5307;42.548;22.968;2023-12-14T12:13:02;93017.78;;;8.72;87.57
10518;BME280;5307;42.548;22.968;2023-12-14T12:15:31;93026.56;;;8.76;87.30
10518;BME280;5307;42.548;22.968;2023-12-14T12:17:58;93031.09;;;8.70;87.80
10518;BME280;5307;42.548;22.968;2023-12-14T12:20:26;93022.19;;;8.79;87.21
10518;BME280;5307;42.548;22.968;2023-12-14T12:22:53;93018.13;;;8.74;87.77
10518;BME280;5307;42.548;22.968;2023-12-14T12:25:20;93015.84;;;8.63;88.08
10518;BME280;5307;42.548;22.968;2023-12-14T12:27:48;93009.97;;;8.47;86.79
10518;BME280;5307;42.548;22.968;2023-12-14T12:30:15;93037.63;;;8.54;85.98
10518;BME280;5307;42.548;22.968;2023-12-14T12:32:42;93025.09;;;8.48;84.49
10518;BME280;5307;42.548;22.968;2023-12-14T12:35:09;93015.25;;;8.59;83.78
10518;BME280;5307;42.548;22.968;2023-12-14T12:37:37;93012.22;;;8.57;82.09
10518;BME280;5307;42.548;22.968;2023-12-14T12:40:05;93006.63;;;8.52;82.83
10518;BME280;5307;42.548;22.968;2023-12-14T12:46:20;93009.34;;;8.43;81.13
10518;BME280;5307;42.548;22.968;2023-12-14T12:48:47;93045.63;;;8.49;81.94
10518;BME280;5307;42.548;22.968;2023-12-14T12:51:15;93038.03;;;8.25;80.65
10518;BME280;5307;42.548;22.968;2023-12-14T12:53:43;93023.72;;;8.34;80.57
10518;BME280;5307;42.548;22.968;2023-12-14T12:56:10;93035.19;;;8.38;80.44
10518;BME280;5307;42.548;22.968;2023-12-14T12:58:37;93044.53;;;8.19;80.92
10518;BME280;5307;42.548;22.968;2023-12-14T13:01:04;93028.34;;;8.15;81.99
10518;BME280;5307;42.548;22.968;2023-12-14T13:03:31;93063.25;;;8.08;81.66
10518;BME280;5307;42.548;22.968;2023-12-14T13:05:57;93079.28;;;8.24;82.04
10518;BME280;5307;42.548;22.968;2023-12-14T13:08:24;93057.13;;;8.35;82.54
10518;BME280;5307;42.548;22.968;2023-12-14T13:10:52;93055.09;;;8.08;81.43
10518;BME280;5307;42.548;22.968;2023-12-14T13:13:19;93048.00;;;8.10;82.59
10518;BME280;5307;42.548;22.968;2023-12-14T13:15:46;93051.88;;;8.00;82.31
10518;BME280;5307;42.548;22.968;2023-12-14T13:18:13;93057.84;;;8.17;82.89
10518;BME280;5307;42.548;22.968;2023-12-14T13:20:41;93062.75;;;7.91;82.17
10518;BME280;5307;42.548;22.968;2023-12-14T13:23:08;93037.09;;;7.92;82.30
10518;BME280;5307;42.548;22.968;2023-12-14T13:25:35;93052.34;;;7.89;82.59
10518;BME280;5307;42.548;22.968;2023-12-14T13:28:03;93069.63;;;7.73;81.79
10518;BME280;5307;42.548;22.968;2023-12-14T13:30:31;93070.91;;;7.91;82.14
10518;BME280;5307;42.548;22.968;2023-12-14T13:32:57;93064.00;;;7.59;81.62
10518;BME280;5307;42.548;22.968;2023-12-14T13:35:24;93057.84;;;7.67;82.54
10518;BME280;5307;42.548;22.968;2023-12-14T13:37:53;93066.59;;;7.71;82.13
10518;BME280;5307;42.548;22.968;2023-12-14T13:40:20;93053.06;;;7.81;82.78
10518;BME280;5307;42.548;22.968;2023-12-14T13:42:47;93052.44;;;7.77;82.84